sensor_id;sensor_type;location;lat;lon;timestamp;P1;durP1;ratioP1;P2;durP2;ratioP2
15116;SDS011;7659;51.038;13.786;2024-03-02T00:00:54;62.78;;;42.42;;
15116;SDS011;7659;51.038;13.786;2024-03-02T00:03:19;61.60;;;42.75;;
15116;SDS011;7659;51.038;13.786;2024-03-02T00:05:49;67.90;;;45.15;;
15116;SDS011;7659;51.038;13.786;2024-03-02T00:08:14;68.18;;;43.90;;
15116;SDS011;7659;51.038;13.786;2024-03-02T00:10:44;64.03;;;42.03;;
15116;SDS011;7659;51.038;13.786;2024-03-02T00:13:09;64.63;;;42.78;;
15116;SDS011;7659;51.038;13.786;2024-03-02T00:15:41;62.60;;;43.70;;
15116;SDS011;7659;51.038;13.786;2024-03-02T00:18:10;60.75;;;40.90;;
15116;SDS011;7659;51.038;13.786;2024-03-02T00:20:37;62.17;;;41.50;;
15116;SDS011;7659;51.038;13.786;2024-03-02T00:23:03;60.72;;;41.38;;
15116;SDS011;7659;51.038;13.786;2024-03-02T00:25:40;64.63;;;42.65;;
15116;SDS011;7659;51.038;13.786;2024-03-02T00:28:16;65.95;;;43.08;;
15116;SDS011;7659;51.038;13.786;2024-03-02T00:30:46;63.33;;;43.15;;
15116;SDS011;7659;51.038;13.786;2024-03-02T00:33:16;60.25;;;42.45;;
15116;SDS011;7659;51.038;13.786;2024-03-02T00:35:44;59.15;;;41.25;;
15116;SDS011;7659;51.038;13.786;2024-03-02T00:38:09;66.22;;;43.00;;
15116;SDS011;7659;51.038;13.786;2024-03-02T00:40:34;69.35;;;45.58;;
15116;SDS011;7659;51.038;13.786;2024-03-02T00:43:00;58.45;;;42.70;;
15116;SDS011;7659;51.038;13.786;2024-03-02T00:45:27;63.35;;;42.75;;
15116;SDS011;7659;51.038;13.786;2024-03-02T00:47:53;59.88;;;41.60;;
15116;SDS011;7659;51.038;13.786;2024-03-02T00:50:18;57.15;;;40.05;;
15116;SDS011;7659;51.038;13.786;2024-03-02T00:52:44;53.42;;;39.92;;
15116;SDS011;7659;51.038;13.786;2024-03-02T00:55:09;54.97;;;39.17;;
15116;SDS011;7659;51.038;13.786;2024-03-02T00:57:35;53.10;;;38.35;;
15116;SDS011;7659;51.038;13.786;2024-03-02T01:00:01;55.35;;;40.47;;
15116;SDS011;7659;51.038;13.786;2024-03-02T01:02:26;53.88;;;39.28;;
15116;SDS011;7659;51.038;13.786;2024-03-02T01:04:53;54.75;;;38.75;;
15116;SDS011;7659;51.038;13.786;2024-03-02T01:07:18;61.85;;;46.08;;
15116;SDS011;7659;51.038;13.786;2024-03-02T01:09:43;59.05;;;40.30;;
15116;SDS011;7659;51.038;13.786;2024-03-02T01:12:10;52.95;;;39.45;;
15116;SDS011;7659;51.038;13.786;2024-03-02T01:14:35;55.00;;;39.08;;
15116;SDS011;7659;51.038;13.786;2024-03-02T01:17:01;56.45;;;40.80;;
15116;SDS011;7659;51.038;13.786;2024-03-02T01:19:29;60.20;;;41.47;;
15116;SDS011;7659;51.038;13.786;2024-03-02T01:21:55;54.17;;;39.17;;
15116;SDS011;7659;51.038;13.786;2024-03-02T01:24:20;55.45;;;39.55;;
15116;SDS011;7659;51.038;13.786;2024-03-02T01:26:45;55.65;;;40.33;;
15116;SDS011;7659;51.038;13.786;2024-03-02T01:29:11;56.92;;;40.10;;
15116;SDS011;7659;51.038;13.786;2024-03-02T01:31:36;51.53;;;37.10;;
15116;SDS011;7659;51.038;13.786;2024-03-02T01:34:02;47.88;;;36.55;;
15116;SDS011;7659;51.038;13.786;2024-03-02T01:36:27;57.10;;;39.90;;
15116;SDS011;7659;51.038;13.786;2024-03-02T01:38:53;57.42;;;40.03;;
15116;SDS011;7659;51.038;13.786;2024-03-02T01:41:18;63.05;;;42.25;;
15116;SDS011;7659;51.038;13.786;2024-03-02T01:43:43;60.67;;;42.67;;
15116;SDS011;7659;51.038;13.786;2024-03-02T01:46:09;58.45;;;41.25;;
15116;SDS011;7659;51.038;13.786;2024-03-02T01:48:34;54.78;;;39.83;;
15116;SDS011;7659;51.038;13.786;2024-03-02T01:51:00;54.53;;;39.72;;
15116;SDS011;7659;51.038;13.786;2024-03-02T01:53:26;57.13;;;40.10;;
15116;SDS011;7659;51.038;13.786;2024-03-02T01:55:52;61.25;;;41.85;;
15116;SDS011;7659;51.038;13.786;2024-03-02T01:58:17;62.97;;;41.83;;
15116;SDS011;7659;51.038;13.786;2024-03-02T02:00:42;56.50;;;40.42;;
15116;SDS011;7659;51.038;13.786;2024-03-02T02:03:08;65.53;;;43.53;;
15116;SDS011;7659;51.038;13.786;2024-03-02T02:05:33;59.97;;;41.65;;
15116;SDS011;7659;51.038;13.786;2024-03-02T02:08:00;56.00;;;40.47;;
15116;SDS011;7659;51.038;13.786;2024-03-02T02:10:26;59.83;;;42.20;;
15116;SDS011;7659;51.038;13.786;2024-03-02T02:12:51;62.53;;;43.90;;
15116;SDS011;7659;51.038;13.786;2024-03-02T02:17:48;61.33;;;42.78;;
15116;SDS011;7659;51.038;13.786;2024-03-02T02:20:14;66.00;;;44.78;;
15116;SDS011;7659;51.038;13.786;2024-03-02T02:22:39;64.07;;;44.08;;
15116;SDS011;7659;51.038;13.786;2024-03-02T02:25:05;61.65;;;42.65;;
15116;SDS011;7659;51.038;13.786;2024-03-02T02:27:30;61.40;;;42.88;;
15116;SDS011;7659;51.038;13.786;2024-03-02T02:29:56;65.60;;;44.55;;
15116;SDS011;7659;51.038;13.786;2024-03-02T02:32:21;64.93;;;42.97;;
15116;SDS011;7659;51.038;13.786;2024-03-02T02:34:47;67.20;;;44.03;;
15116;SDS011;7659;51.038;13.786;2024-03-02T02:37:12;75.63;;;45.28;;
15116;SDS011;7659;51.038;13.786;2024-03-02T02:39:37;72.22;;;45.97;;
15116;SDS011;7659;51.038;13.786;2024-03-02T02:42:03;64.28;;;42.67;;
15116;SDS011;7659;51.038;13.786;2024-03-02T02:44:28;72.88;;;48.22;;
15116;SDS011;7659;51.038;13.786;2024-03-02T02:46:54;77.80;;;46.88;;
15116;SDS011;7659;51.038;13.786;2024-03-02T02:49:19;72.22;;;45.72;;
15116;SDS011;7659;51.038;13.786;2024-03-02T02:51:44;73.53;;;47.40;;
15116;SDS011;7659;51.038;13.786;2024-03-02T02:54:10;69.65;;;45.53;;
15116;SDS011;7659;51.038;13.786;2024-03-02T02:56:35;73.53;;;47.17;;
15116;SDS011;7659;51.038;13.786;2024-03-02T02:59:01;76.10;;;48.80;;
15116;SDS011;7659;51.038;13.786;2024-03-02T03:01:26;78.90;;;47.80;;
15116;SDS011;7659;51.038;13.786;2024-03-02T03:03:52;74.43;;;45.58;;
15116;SDS011;7659;51.038;13.786;2024-03-02T03:06:17;76.82;;;48.72;;
15116;SDS011;7659;51.038;13.786;2024-03-02T03:08:43;73.13;;;47.00;;
15116;SDS011;7659;51.038;13.786;2024-03-02T03:11:08;81.68;;;49.50;;
15116;SDS011;7659;51.038;13.786;2024-03-02T03:13:33;70.78;;;46.05;;
15116;SDS011;7659;51.038;13.786;2024-03-02T03:15:59;75.30;;;46.20;;
15116;SDS011;7659;51.038;13.786;2024-03-02T03:18:25;80.28;;;49.05;;
15116;SDS011;7659;51.038;13.786;2024-03-02T03:20:50;79.57;;;48.20;;
15116;SDS011;7659;51.038;13.786;2024-03-02T03:23:15;78.30;;;48.63;;
15116;SDS011;7659;51.038;13.786;2024-03-02T03:25:45;83.03;;;48.65;;
15116;SDS011;7659;51.038;13.786;2024-03-02T03:28:10;81.55;;;49.05;;
15116;SDS011;7659;51.038;13.786;2024-03-02T03:30:38;77.75;;;47.28;;
15116;SDS011;7659;51.038;13.786;2024-03-02T03:33:04;77.18;;;48.65;;
15116;SDS011;7659;51.038;13.786;2024-03-02T03:35:33;84.35;;;50.25;;
15116;SDS011;7659;51.038;13.786;2024-03-02T03:37:58;81.40;;;48.03;;
15116;SDS011;7659;51.038;13.786;2024-03-02T03:40:24;84.60;;;51.63;;
15116;SDS011;7659;51.038;13.786;2024-03-02T03:42:49;84.90;;;50.35;;
15116;SDS011;7659;51.038;13.786;2024-03-02T03:45:15;88.03;;;49.95;;
15116;SDS011;7659;51.038;13.786;2024-03-02T03:47:41;90.88;;;52.22;;
15116;SDS011;7659;51.038;13.786;2024-03-02T03:50:06;86.75;;;49.47;;
15116;SDS011;7659;51.038;13.786;2024-03-02T03:52:32;87.00;;;49.60;;
15116;SDS011;7659;51.038;13.786;2024-03-02T03:54:57;87.50;;;50.25;;
15116;SDS011;7659;51.038;13.786;2024-03-02T03:57:23;87.65;;;49.13;;
15116;SDS011;7659;51.038;13.786;2024-03-02T03:59:48;89.85;;;51.28;;
15116;SDS011;7659;51.038;13.786;2024-03-02T04:02:14;87.88;;;50.10;;
15116;SDS011;7659;51.038;13.786;2024-03-02T04:04:39;84.30;;;49.13;;
15116;SDS011;7659;51.038;13.786;2024-03-02T04:07:05;88.25;;;50.35;;
15116;SDS011;7659;51.038;13.786;2024-03-02T04:09:30;87.10;;;48.80;;
15116;SDS011;7659;51.038;13.786;2024-03-02T04:11:56;90.80;;;51.00;;
15116;SDS011;7659;51.038;13.786;2024-03-02T04:14:21;94.28;;;51.25;;
15116;SDS011;7659;51.038;13.786;2024-03-02T04:16:46;97.00;;;51.78;;
15116;SDS011;7659;51.038;13.786;2024-03-02T04:19:12;88.82;;;50.67;;
15116;SDS011;7659;51.038;13.786;2024-03-02T04:21:37;93.75;;;51.60;;
15116;SDS011;7659;51.038;13.786;2024-03-02T04:24:03;99.95;;;52.72;;
15116;SDS011;7659;51.038;13.786;2024-03-02T04:26:28;93.65;;;51.50;;
15116;SDS011;7659;51.038;13.786;2024-03-02T04:28:54;94.20;;;50.90;;
15116;SDS011;7659;51.038;13.786;2024-03-02T04:31:19;94.97;;;51.55;;
15116;SDS011;7659;51.038;13.786;2024-03-02T04:33:45;86.05;;;50.10;;
15116;SDS011;7659;51.038;13.786;2024-03-02T04:36:10;91.60;;;49.90;;
15116;SDS011;7659;51.038;13.786;2024-03-02T04:38:36;97.35;;;51.47;;
15116;SDS011;7659;51.038;13.786;2024-03-02T04:41:02;95.68;;;51.05;;
15116;SDS011;7659;51.038;13.786;2024-03-02T04:43:27;96.78;;;51.42;;
15116;SDS011;7659;51.038;13.786;2024-03-02T04:45:53;92.93;;;49.78;;
15116;SDS011;7659;51.038;13.786;2024-03-02T04:48:18;93.20;;;51.30;;
15116;SDS011;7659;51.038;13.786;2024-03-02T04:50:44;93.57;;;48.50;;
15116;SDS011;7659;51.038;13.786;2024-03-02T04:53:11;93.13;;;48.17;;
15116;SDS011;7659;51.038;13.786;2024-03-02T04:55:36;93.50;;;49.25;;
15116;SDS011;7659;51.038;13.786;2024-03-02T04:58:04;90.70;;;49.35;;
15116;SDS011;7659;51.038;13.786;2024-03-02T05:00:30;92.55;;;49.47;;
15116;SDS011;7659;51.038;13.786;2024-03-02T05:02:55;93.30;;;50.42;;
15116;SDS011;7659;51.038;13.786;2024-03-02T05:05:21;94.05;;;52.13;;
15116;SDS011;7659;51.038;13.786;2024-03-02T05:07:46;95.72;;;52.08;;
15116;SDS011;7659;51.038;13.786;2024-03-02T05:10:12;93.10;;;50.40;;
15116;SDS011;7659;51.038;13.786;2024-03-02T05:12:37;86.70;;;48.80;;
15116;SDS011;7659;51.038;13.786;2024-03-02T05:15:09;80.65;;;46.20;;
15116;SDS011;7659;51.038;13.786;2024-03-02T05:17:35;89.13;;;49.28;;
15116;SDS011;7659;51.038;13.786;2024-03-02T05:20:01;87.00;;;47.53;;
15116;SDS011;7659;51.038;13.786;2024-03-02T05:22:26;89.80;;;46.42;;
15116;SDS011;7659;51.038;13.786;2024-03-02T05:24:52;81.80;;;47.30;;
15116;SDS011;7659;51.038;13.786;2024-03-02T05:27:17;86.53;;;47.35;;
15116;SDS011;7659;51.038;13.786;2024-03-02T05:29:42;90.45;;;47.00;;
15116;SDS011;7659;51.038;13.786;2024-03-02T05:32:08;82.95;;;45.97;;
15116;SDS011;7659;51.038;13.786;2024-03-02T05:34:33;88.93;;;47.50;;
15116;SDS011;7659;51.038;13.786;2024-03-02T05:37:00;86.72;;;46.53;;
15116;SDS011;7659;51.038;13.786;2024-03-02T05:39:26;77.72;;;44.33;;
15116;SDS011;7659;51.038;13.786;2024-03-02T05:41:51;77.53;;;44.75;;
15116;SDS011;7659;51.038;13.786;2024-03-02T05:44:17;69.90;;;41.13;;
15116;SDS011;7659;51.038;13.786;2024-03-02T05:46:43;75.07;;;42.50;;
15116;SDS011;7659;51.038;13.786;2024-03-02T05:49:09;73.78;;;42.42;;
15116;SDS011;7659;51.038;13.786;2024-03-02T05:51:35;68.00;;;39.92;;
15116;SDS011;7659;51.038;13.786;2024-03-02T05:54:00;66.03;;;40.22;;
15116;SDS011;7659;51.038;13.786;2024-03-02T05:56:26;69.22;;;40.42;;
15116;SDS011;7659;51.038;13.786;2024-03-02T05:58:51;71.75;;;41.78;;
15116;SDS011;7659;51.038;13.786;2024-03-02T06:01:32;68.93;;;39.95;;
15116;SDS011;7659;51.038;13.786;2024-03-02T06:03:57;71.38;;;41.63;;
15116;SDS011;7659;51.038;13.786;2024-03-02T06:06:24;72.90;;;42.25;;
15116;SDS011;7659;51.038;13.786;2024-03-02T06:08:49;69.05;;;40.75;;
15116;SDS011;7659;51.038;13.786;2024-03-02T06:11:15;70.47;;;40.67;;
15116;SDS011;7659;51.038;13.786;2024-03-02T06:13:41;71.70;;;41.15;;
15116;SDS011;7659;51.038;13.786;2024-03-02T06:16:06;69.85;;;42.00;;
15116;SDS011;7659;51.038;13.786;2024-03-02T06:18:32;69.97;;;40.33;;
15116;SDS011;7659;51.038;13.786;2024-03-02T06:20:57;72.15;;;42.78;;
15116;SDS011;7659;51.038;13.786;2024-03-02T06:23:22;69.78;;;40.72;;
15116;SDS011;7659;51.038;13.786;2024-03-02T06:25:48;69.90;;;41.95;;
15116;SDS011;7659;51.038;13.786;2024-03-02T06:28:13;67.60;;;40.17;;
15116;SDS011;7659;51.038;13.786;2024-03-02T06:30:41;68.72;;;41.83;;
15116;SDS011;7659;51.038;13.786;2024-03-02T06:33:06;68.93;;;39.88;;
15116;SDS011;7659;51.038;13.786;2024-03-02T06:35:31;69.80;;;41.20;;
15116;SDS011;7659;51.038;13.786;2024-03-02T06:37:57;67.00;;;41.10;;
15116;SDS011;7659;51.038;13.786;2024-03-02T06:40:22;68.43;;;40.00;;
15116;SDS011;7659;51.038;13.786;2024-03-02T06:42:48;69.25;;;40.88;;
15116;SDS011;7659;51.038;13.786;2024-03-02T06:45:13;71.03;;;41.35;;
15116;SDS011;7659;51.038;13.786;2024-03-02T06:47:39;73.45;;;41.78;;
15116;SDS011;7659;51.038;13.786;2024-03-02T06:50:04;68.00;;;40.25;;
15116;SDS011;7659;51.038;13.786;2024-03-02T06:52:30;72.55;;;39.40;;
15116;SDS011;7659;51.038;13.786;2024-03-02T06:54:55;72.30;;;40.78;;
15116;SDS011;7659;51.038;13.786;2024-03-02T06:57:20;70.75;;;39.40;;
15116;SDS011;7659;51.038;13.786;2024-03-02T06:59:46;77.32;;;41.97;;
15116;SDS011;7659;51.038;13.786;2024-03-02T07:02:12;73.80;;;42.17;;
15116;SDS011;7659;51.038;13.786;2024-03-02T07:04:37;76.35;;;42.38;;
15116;SDS011;7659;51.038;13.786;2024-03-02T07:07:03;75.82;;;41.13;;
15116;SDS011;7659;51.038;13.786;2024-03-02T07:09:29;76.18;;;41.75;;
15116;SDS011;7659;51.038;13.786;2024-03-02T07:11:54;74.22;;;40.55;;
15116;SDS011;7659;51.038;13.786;2024-03-02T07:14:19;71.18;;;39.65;;
15116;SDS011;7659;51.038;13.786;2024-03-02T07:16:45;74.47;;;41.10;;
15116;SDS011;7659;51.038;13.786;2024-03-02T07:19:10;76.65;;;41.13;;
15116;SDS011;7659;51.038;13.786;2024-03-02T07:21:36;72.43;;;40.03;;
15116;SDS011;7659;51.038;13.786;2024-03-02T07:24:01;75.63;;;40.03;;
15116;SDS011;7659;51.038;13.786;2024-03-02T07:26:28;74.97;;;41.60;;
15116;SDS011;7659;51.038;13.786;2024-03-02T07:28:54;78.20;;;41.80;;
15116;SDS011;7659;51.038;13.786;2024-03-02T07:31:19;76.93;;;41.28;;
15116;SDS011;7659;51.038;13.786;2024-03-02T07:33:45;80.22;;;42.00;;
15116;SDS011;7659;51.038;13.786;2024-03-02T07:36:11;79.20;;;43.17;;
15116;SDS011;7659;51.038;13.786;2024-03-02T07:38:37;79.18;;;43.33;;
15116;SDS011;7659;51.038;13.786;2024-03-02T07:41:02;76.18;;;42.45;;
15116;SDS011;7659;51.038;13.786;2024-03-02T07:43:29;77.72;;;42.17;;
15116;SDS011;7659;51.038;13.786;2024-03-02T07:45:57;77.40;;;43.00;;
15116;SDS011;7659;51.038;13.786;2024-03-02T07:48:22;80.15;;;43.47;;
15116;SDS011;7659;51.038;13.786;2024-03-02T07:50:48;83.63;;;45.13;;
15116;SDS011;7659;51.038;13.786;2024-03-02T07:53:13;88.43;;;45.45;;
15116;SDS011;7659;51.038;13.786;2024-03-02T07:55:39;81.85;;;43.92;;
15116;SDS011;7659;51.038;13.786;2024-03-02T07:58:06;82.70;;;43.97;;
15116;SDS011;7659;51.038;13.786;2024-03-02T08:00:31;89.22;;;46.90;;
15116;SDS011;7659;51.038;13.786;2024-03-02T08:02:57;81.47;;;44.03;;
15116;SDS011;7659;51.038;13.786;2024-03-02T08:05:22;81.10;;;45.22;;
15116;SDS011;7659;51.038;13.786;2024-03-02T08:07:48;97.40;;;49.88;;
15116;SDS011;7659;51.038;13.786;2024-03-02T08:10:13;98.63;;;50.95;;
15116;SDS011;7659;51.038;13.786;2024-03-02T08:12:39;103.10;;;53.83;;
15116;SDS011;7659;51.038;13.786;2024-03-02T08:15:05;102.70;;;52.15;;
15116;SDS011;7659;51.038;13.786;2024-03-02T08:17:30;90.07;;;49.17;;
15116;SDS011;7659;51.038;13.786;2024-03-02T08:19:56;96.50;;;47.92;;
15116;SDS011;7659;51.038;13.786;2024-03-02T08:22:21;89.30;;;42.75;;
15116;SDS011;7659;51.038;13.786;2024-03-02T08:24:47;80.60;;;42.63;;
15116;SDS011;7659;51.038;13.786;2024-03-02T08:27:12;79.70;;;41.55;;
15116;SDS011;7659;51.038;13.786;2024-03-02T08:29:38;78.10;;;39.03;;
15116;SDS011;7659;51.038;13.786;2024-03-02T08:32:03;77.03;;;39.88;;
15116;SDS011;7659;51.038;13.786;2024-03-02T08:34:29;76.45;;;39.00;;
15116;SDS011;7659;51.038;13.786;2024-03-02T08:36:54;68.93;;;36.40;;
15116;SDS011;7659;51.038;13.786;2024-03-02T08:39:20;70.82;;;36.95;;
15116;SDS011;7659;51.038;13.786;2024-03-02T08:41:46;70.38;;;36.42;;
15116;SDS011;7659;51.038;13.786;2024-03-02T08:44:11;68.75;;;35.78;;
15116;SDS011;7659;51.038;13.786;2024-03-02T08:46:37;68.03;;;35.47;;
15116;SDS011;7659;51.038;13.786;2024-03-02T08:49:02;66.25;;;34.03;;
15116;SDS011;7659;51.038;13.786;2024-03-02T08:51:28;58.15;;;31.42;;
15116;SDS011;7659;51.038;13.786;2024-03-02T08:53:53;61.65;;;31.88;;
15116;SDS011;7659;51.038;13.786;2024-03-02T08:56:19;63.65;;;32.65;;
15116;SDS011;7659;51.038;13.786;2024-03-02T08:58:45;61.03;;;32.83;;
15116;SDS011;7659;51.038;13.786;2024-03-02T09:01:11;55.20;;;31.15;;
15116;SDS011;7659;51.038;13.786;2024-03-02T09:03:36;57.60;;;31.98;;
15116;SDS011;7659;51.038;13.786;2024-03-02T09:06:02;54.75;;;29.38;;
15116;SDS011;7659;51.038;13.786;2024-03-02T09:08:28;57.72;;;30.92;;
15116;SDS011;7659;51.038;13.786;2024-03-02T09:10:53;53.40;;;29.98;;
15116;SDS011;7659;51.038;13.786;2024-03-02T09:13:19;52.17;;;29.92;;
15116;SDS011;7659;51.038;13.786;2024-03-02T09:15:44;59.45;;;29.88;;
15116;SDS011;7659;51.038;13.786;2024-03-02T09:18:10;54.03;;;30.70;;
15116;SDS011;7659;51.038;13.786;2024-03-02T09:20:36;56.83;;;29.85;;
15116;SDS011;7659;51.038;13.786;2024-03-02T09:23:01;52.13;;;28.90;;
15116;SDS011;7659;51.038;13.786;2024-03-02T09:25:27;51.53;;;28.77;;
15116;SDS011;7659;51.038;13.786;2024-03-02T09:27:52;47.67;;;27.25;;
15116;SDS011;7659;51.038;13.786;2024-03-02T09:30:17;49.33;;;28.98;;
15116;SDS011;7659;51.038;13.786;2024-03-02T09:32:43;53.72;;;28.88;;
15116;SDS011;7659;51.038;13.786;2024-03-02T09:35:08;52.55;;;29.63;;
15116;SDS011;7659;51.038;13.786;2024-03-02T09:37:34;51.35;;;28.30;;
15116;SDS011;7659;51.038;13.786;2024-03-02T09:40:00;53.97;;;27.75;;
15116;SDS011;7659;51.038;13.786;2024-03-02T09:42:25;44.85;;;26.73;;
15116;SDS011;7659;51.038;13.786;2024-03-02T09:44:51;46.50;;;28.58;;
15116;SDS011;7659;51.038;13.786;2024-03-02T09:47:17;55.38;;;31.33;;
15116;SDS011;7659;51.038;13.786;2024-03-02T09:49:42;54.72;;;30.65;;
15116;SDS011;7659;51.038;13.786;2024-03-02T09:52:08;56.45;;;31.23;;
15116;SDS011;7659;51.038;13.786;2024-03-02T09:54:35;52.17;;;30.10;;
15116;SDS011;7659;51.038;13.786;2024-03-02T09:57:00;53.53;;;31.17;;
15116;SDS011;7659;51.038;13.786;2024-03-02T09:59:27;57.80;;;32.35;;
15116;SDS011;7659;51.038;13.786;2024-03-02T10:02:01;56.05;;;31.20;;
15116;SDS011;7659;51.038;13.786;2024-03-02T10:04:26;60.22;;;30.73;;
15116;SDS011;7659;51.038;13.786;2024-03-02T10:07:13;61.55;;;31.75;;
15116;SDS011;7659;51.038;13.786;2024-03-02T10:09:38;55.97;;;32.05;;
15116;SDS011;7659;51.038;13.786;2024-03-02T10:12:04;56.08;;;30.65;;
15116;SDS011;7659;51.038;13.786;2024-03-02T10:14:30;66.75;;;32.30;;
15116;SDS011;7659;51.038;13.786;2024-03-02T10:16:55;56.67;;;32.28;;
15116;SDS011;7659;51.038;13.786;2024-03-02T10:19:26;61.38;;;30.98;;
15116;SDS011;7659;51.038;13.786;2024-03-02T10:21:53;55.63;;;31.75;;
15116;SDS011;7659;51.038;13.786;2024-03-02T10:24:18;53.95;;;31.95;;
15116;SDS011;7659;51.038;13.786;2024-03-02T10:26:44;61.50;;;32.33;;
15116;SDS011;7659;51.038;13.786;2024-03-02T10:29:10;59.90;;;33.53;;
15116;SDS011;7659;51.038;13.786;2024-03-02T10:31:39;64.47;;;34.28;;
15116;SDS011;7659;51.038;13.786;2024-03-02T10:34:05;55.67;;;32.10;;
15116;SDS011;7659;51.038;13.786;2024-03-02T10:36:30;63.20;;;32.40;;
15116;SDS011;7659;51.038;13.786;2024-03-02T10:38:56;59.67;;;31.95;;
15116;SDS011;7659;51.038;13.786;2024-03-02T10:41:24;56.60;;;30.55;;
15116;SDS011;7659;51.038;13.786;2024-03-02T10:43:52;59.53;;;32.00;;
15116;SDS011;7659;51.038;13.786;2024-03-02T10:46:19;57.90;;;32.17;;
15116;SDS011;7659;51.038;13.786;2024-03-02T10:48:45;56.15;;;30.85;;
15116;SDS011;7659;51.038;13.786;2024-03-02T10:51:11;47.45;;;28.73;;
15116;SDS011;7659;51.038;13.786;2024-03-02T10:53:37;52.45;;;29.15;;
15116;SDS011;7659;51.038;13.786;2024-03-02T10:56:02;45.25;;;26.45;;
15116;SDS011;7659;51.038;13.786;2024-03-02T10:58:31;37.88;;;21.75;;
15116;SDS011;7659;51.038;13.786;2024-03-02T11:00:58;35.92;;;21.48;;
15116;SDS011;7659;51.038;13.786;2024-03-02T11:03:24;36.92;;;21.88;;
15116;SDS011;7659;51.038;13.786;2024-03-02T11:05:49;29.65;;;17.38;;
15116;SDS011;7659;51.038;13.786;2024-03-02T11:08:16;33.33;;;19.98;;
15116;SDS011;7659;51.038;13.786;2024-03-02T11:10:50;27.98;;;18.30;;
15116;SDS011;7659;51.038;13.786;2024-03-02T11:13:19;35.17;;;19.23;;
15116;SDS011;7659;51.038;13.786;2024-03-02T11:15:47;31.30;;;18.15;;
15116;SDS011;7659;51.038;13.786;2024-03-02T11:18:12;29.77;;;18.58;;
15116;SDS011;7659;51.038;13.786;2024-03-02T11:20:39;27.60;;;17.45;;
15116;SDS011;7659;51.038;13.786;2024-03-02T11:23:05;34.63;;;17.40;;
15116;SDS011;7659;51.038;13.786;2024-03-02T11:25:32;22.42;;;13.45;;
15116;SDS011;7659;51.038;13.786;2024-03-02T11:28:15;20.48;;;13.30;;
15116;SDS011;7659;51.038;13.786;2024-03-02T11:33:07;18.67;;;12.10;;
15116;SDS011;7659;51.038;13.786;2024-03-02T11:35:36;22.70;;;11.13;;
15116;SDS011;7659;51.038;13.786;2024-03-02T11:38:02;18.88;;;10.95;;
15116;SDS011;7659;51.038;13.786;2024-03-02T11:40:28;19.25;;;10.48;;
15116;SDS011;7659;51.038;13.786;2024-03-02T11:42:54;16.75;;;10.15;;
15116;SDS011;7659;51.038;13.786;2024-03-02T11:45:24;18.33;;;10.82;;
15116;SDS011;7659;51.038;13.786;2024-03-02T11:47:50;22.08;;;12.23;;
15116;SDS011;7659;51.038;13.786;2024-03-02T11:50:15;19.90;;;12.30;;
15116;SDS011;7659;51.038;13.786;2024-03-02T11:52:53;21.02;;;12.32;;
15116;SDS011;7659;51.038;13.786;2024-03-02T11:55:18;23.27;;;11.93;;
15116;SDS011;7659;51.038;13.786;2024-03-02T11:57:44;19.95;;;12.10;;
15116;SDS011;7659;51.038;13.786;2024-03-02T12:00:17;20.33;;;11.85;;
15116;SDS011;7659;51.038;13.786;2024-03-02T12:02:43;21.20;;;11.88;;
15116;SDS011;7659;51.038;13.786;2024-03-02T12:05:13;27.58;;;13.13;;
15116;SDS011;7659;51.038;13.786;2024-03-02T12:07:38;30.48;;;15.32;;
15116;SDS011;7659;51.038;13.786;2024-03-02T12:10:04;27.70;;;14.90;;
15116;SDS011;7659;51.038;13.786;2024-03-02T12:12:30;25.40;;;14.15;;
15116;SDS011;7659;51.038;13.786;2024-03-02T12:14:56;26.30;;;13.25;;
15116;SDS011;7659;51.038;13.786;2024-03-02T12:17:22;30.17;;;14.30;;
15116;SDS011;7659;51.038;13.786;2024-03-02T12:19:47;26.63;;;13.88;;
15116;SDS011;7659;51.038;13.786;2024-03-02T12:22:12;25.17;;;13.23;;
15116;SDS011;7659;51.038;13.786;2024-03-02T12:24:38;28.70;;;15.02;;
15116;SDS011;7659;51.038;13.786;2024-03-02T12:27:05;27.83;;;16.10;;
15116;SDS011;7659;51.038;13.786;2024-03-02T12:29:30;29.55;;;17.20;;
15116;SDS011;7659;51.038;13.786;2024-03-02T12:31:56;28.27;;;16.23;;
15116;SDS011;7659;51.038;13.786;2024-03-02T12:34:21;29.70;;;16.60;;
15116;SDS011;7659;51.038;13.786;2024-03-02T12:36:48;31.40;;;16.27;;
15116;SDS011;7659;51.038;13.786;2024-03-02T12:39:17;28.83;;;16.23;;
15116;SDS011;7659;51.038;13.786;2024-03-02T12:41:43;33.08;;;16.60;;
15116;SDS011;7659;51.038;13.786;2024-03-02T12:44:09;29.15;;;15.90;;
15116;SDS011;7659;51.038;13.786;2024-03-02T12:46:34;28.30;;;15.05;;
15116;SDS011;7659;51.038;13.786;2024-03-02T12:49:11;28.17;;;15.38;;
15116;SDS011;7659;51.038;13.786;2024-03-02T12:51:37;32.95;;;15.82;;
15116;SDS011;7659;51.038;13.786;2024-03-02T12:54:02;30.40;;;15.25;;
15116;SDS011;7659;51.038;13.786;2024-03-02T12:56:28;26.30;;;14.35;;
15116;SDS011;7659;51.038;13.786;2024-03-02T12:58:54;28.00;;;14.65;;
15116;SDS011;7659;51.038;13.786;2024-03-02T13:01:20;24.77;;;14.70;;
15116;SDS011;7659;51.038;13.786;2024-03-02T13:03:46;29.52;;;15.18;;
15116;SDS011;7659;51.038;13.786;2024-03-02T13:06:13;25.10;;;14.32;;
15116;SDS011;7659;51.038;13.786;2024-03-02T13:08:38;23.83;;;14.40;;
15116;SDS011;7659;51.038;13.786;2024-03-02T13:11:04;26.85;;;14.18;;
15116;SDS011;7659;51.038;13.786;2024-03-02T13:13:32;31.15;;;15.88;;
15116;SDS011;7659;51.038;13.786;2024-03-02T13:15:57;28.00;;;15.30;;
15116;SDS011;7659;51.038;13.786;2024-03-02T13:18:23;23.88;;;14.27;;
15116;SDS011;7659;51.038;13.786;2024-03-02T13:20:48;27.77;;;15.23;;
15116;SDS011;7659;51.038;13.786;2024-03-02T13:23:14;25.92;;;16.08;;
15116;SDS011;7659;51.038;13.786;2024-03-02T13:25:39;26.10;;;15.25;;
15116;SDS011;7659;51.038;13.786;2024-03-02T13:28:05;25.75;;;14.23;;
15116;SDS011;7659;51.038;13.786;2024-03-02T13:30:31;22.88;;;15.32;;
15116;SDS011;7659;51.038;13.786;2024-03-02T13:32:57;26.38;;;14.85;;
15116;SDS011;7659;51.038;13.786;2024-03-02T13:35:23;25.70;;;14.05;;
15116;SDS011;7659;51.038;13.786;2024-03-02T13:37:48;23.85;;;13.52;;
15116;SDS011;7659;51.038;13.786;2024-03-02T13:40:15;23.27;;;14.13;;
15116;SDS011;7659;51.038;13.786;2024-03-02T13:42:48;21.67;;;13.32;;
15116;SDS011;7659;51.038;13.786;2024-03-02T13:45:14;20.13;;;12.30;;
15116;SDS011;7659;51.038;13.786;2024-03-02T13:47:39;25.27;;;12.95;;
15116;SDS011;7659;51.038;13.786;2024-03-02T13:50:05;18.30;;;12.60;;
15116;SDS011;7659;51.038;13.786;2024-03-02T13:52:32;23.55;;;13.82;;
15116;SDS011;7659;51.038;13.786;2024-03-02T13:54:58;23.98;;;13.25;;
15116;SDS011;7659;51.038;13.786;2024-03-02T13:57:23;21.33;;;13.32;;
15116;SDS011;7659;51.038;13.786;2024-03-02T13:59:49;25.60;;;12.55;;
15116;SDS011;7659;51.038;13.786;2024-03-02T14:02:14;24.77;;;13.35;;
15116;SDS011;7659;51.038;13.786;2024-03-02T14:04:40;24.73;;;14.27;;
15116;SDS011;7659;51.038;13.786;2024-03-02T14:07:05;24.98;;;13.27;;
15116;SDS011;7659;51.038;13.786;2024-03-02T14:09:34;26.30;;;14.95;;
15116;SDS011;7659;51.038;13.786;2024-03-02T14:11:59;27.55;;;15.65;;
15116;SDS011;7659;51.038;13.786;2024-03-02T14:14:27;31.55;;;17.75;;
15116;SDS011;7659;51.038;13.786;2024-03-02T14:16:54;32.30;;;18.23;;
15116;SDS011;7659;51.038;13.786;2024-03-02T14:19:21;29.95;;;17.80;;